Terminal Aerodrome Forecast
Issued by NWS Twin Cities, MN

Home | Current Version | Previous Version | Graphics & Text | Print | Product List | Glossary On
Versions: 1 2 3 4 5 6 7 8 9 10 11 12 13 14 15 16
936
FTUS43 KMPX 170520
TAFEAU
TAF
KEAU 170520Z 1706/1806 14013G20KT P6SM SCT018 OVC140
      TEMPO 1707/1711 BKN018 OVC140
     FM171500 15011KT 6SM -DZ BR OVC012
     FM171700 15008KT 4SM -DZ BR OVC008
     FM180300 33006KT 5SM -DZ BR OVC008=

USA.gov is the U.S. government's official web portal to all federal, state and local government web resources and services.